サンパウロ/グアルーリョス の空港の天気 - METARとTAF

グアルーリョス国際空港 (サンパウロ) ( SBGR / GRU ) - ブラジル サンパウロ州サンパウロ市
飛行場実況気象(Metar)
観測時間06/17 16:00 BRT (06/17 19:00 UTC)
風向・風速東 2m/s
視程10km以上
天気現象
全天の4割程度の雲 雲底高度 1010m
気温23℃
湿度61%
気圧1023hPa
METARSBGR 171900Z 08004KT 9999 SCT033 23/15 Q1023
過去の天気等 Google飛行場航空写真 Wunderground天気予報

過去48時間のMETAR

飛行場予報(TAF)
発表時間: 6/17 13:00 BRT (6/17 16:00 UTC)
予報対象時間: 17日15時 BRT ~ 18日21時 BRT
風向・風速南東 4m/s
視程10km以上
全天の4割程度の雲 雲底高度 1220m
17日17時 BRT ~ 17日19時 BRT に徐々に
全天の8割程度の雲 雲底高度 460m
17日21時 BRT ~ 17日23時 BRT に徐々に
風向・風速東 3m/s
視程8000m
なし
18日1時 BRT ~ 18日3時 BRT に徐々に
風向・風速静穏
視程4000m
天気現象もや
少しの雲 雲底高度 150m
18日5時 BRT ~ 18日7時 BRT に徐々に
視程400m
天気現象
全天を覆う雲 雲底高度 30m
18日9時 BRT から
風向・風速東北東 4m/s
視程7000m
天気現象運行に影響にある天気現象が終了
少しの雲 雲底高度 300m
18日11時 BRT ~ 18日13時 BRT に徐々に
風向・風速北西 4m/s
視程10km以上
なし
18日17時 BRT ~ 18日19時 BRT に徐々に
風向・風速南東 3m/s
TAF SBGR 171600Z 1718/1824 14008KT 9999 SCT040 TN13/1807Z TX26/1818Z
BECMG 1720/1722 BKN015
BECMG 1800/1802 08005KT 8000 NSC
BECMG 1804/1806 00000KT 4000 BR FEW005
BECMG 1808/1810 0400 FG OVC001
FM181200 07007KT 7000 NSW FEW010
BECMG 1814/1816 32007KT CAVOK
BECMG 1820/1822 14005KT RMK PGG